sensor_id;sensor_type;location;lat;lon;timestamp;P1;durP1;ratioP1;P2;durP2;ratioP2
23732;SDS011;12047;53.450;-2.286;2023-04-24T00:01:12;8.43;;;2.60;;
23732;SDS011;12047;53.450;-2.286;2023-04-24T00:06:13;7.68;;;1.95;;
23732;SDS011;12047;53.450;-2.286;2023-04-24T00:11:14;6.47;;;2.03;;
23732;SDS011;12047;53.450;-2.286;2023-04-24T00:16:14;4.10;;;1.85;;
23732;SDS011;12047;53.450;-2.286;2023-04-24T00:21:15;7.43;;;1.88;;
23732;SDS011;12047;53.450;-2.286;2023-04-24T00:26:17;7.38;;;1.75;;
23732;SDS011;12047;53.450;-2.286;2023-04-24T00:31:18;4.88;;;1.80;;
23732;SDS011;12047;53.450;-2.286;2023-04-24T00:36:19;5.53;;;1.67;;
23732;SDS011;12047;53.450;-2.286;2023-04-24T00:41:20;5.13;;;1.75;;
23732;SDS011;12047;53.450;-2.286;2023-04-24T00:46:21;6.47;;;1.58;;
23732;SDS011;12047;53.450;-2.286;2023-04-24T00:51:22;8.90;;;2.13;;
23732;SDS011;12047;53.450;-2.286;2023-04-24T00:56:24;4.20;;;2.00;;
23732;SDS011;12047;53.450;-2.286;2023-04-24T01:01:25;5.35;;;1.65;;
23732;SDS011;12047;53.450;-2.286;2023-04-24T01:06:27;9.05;;;2.33;;
23732;SDS011;12047;53.450;-2.286;2023-04-24T01:11:28;8.88;;;2.40;;
23732;SDS011;12047;53.450;-2.286;2023-04-24T01:16:30;8.13;;;1.85;;
23732;SDS011;12047;53.450;-2.286;2023-04-24T01:21:30;7.18;;;1.80;;
23732;SDS011;12047;53.450;-2.286;2023-04-24T01:26:35;7.65;;;2.03;;
23732;SDS011;12047;53.450;-2.286;2023-04-24T01:31:36;5.50;;;1.90;;
23732;SDS011;12047;53.450;-2.286;2023-04-24T01:36:36;5.05;;;1.88;;
23732;SDS011;12047;53.450;-2.286;2023-04-24T01:41:38;7.88;;;1.90;;
23732;SDS011;12047;53.450;-2.286;2023-04-24T01:46:38;7.72;;;2.28;;
23732;SDS011;12047;53.450;-2.286;2023-04-24T01:51:39;7.38;;;2.08;;
23732;SDS011;12047;53.450;-2.286;2023-04-24T01:56:42;7.00;;;2.15;;
23732;SDS011;12047;53.450;-2.286;2023-04-24T02:01:43;5.10;;;2.28;;
23732;SDS011;12047;53.450;-2.286;2023-04-24T02:06:44;6.40;;;2.10;;
23732;SDS011;12047;53.450;-2.286;2023-04-24T02:11:44;6.50;;;1.80;;
23732;SDS011;12047;53.450;-2.286;2023-04-24T02:16:45;6.18;;;1.90;;
23732;SDS011;12047;53.450;-2.286;2023-04-24T02:21:45;6.03;;;1.35;;
23732;SDS011;12047;53.450;-2.286;2023-04-24T02:26:46;3.97;;;1.50;;
23732;SDS011;12047;53.450;-2.286;2023-04-24T02:31:46;6.38;;;1.63;;
23732;SDS011;12047;53.450;-2.286;2023-04-24T02:36:46;6.40;;;1.50;;
23732;SDS011;12047;53.450;-2.286;2023-04-24T02:41:47;3.63;;;1.38;;
23732;SDS011;12047;53.450;-2.286;2023-04-24T02:46:47;3.95;;;1.30;;
23732;SDS011;12047;53.450;-2.286;2023-04-24T02:51:48;4.53;;;1.67;;
23732;SDS011;12047;53.450;-2.286;2023-04-24T02:56:48;4.15;;;1.67;;
23732;SDS011;12047;53.450;-2.286;2023-04-24T03:01:49;5.18;;;1.55;;
23732;SDS011;12047;53.450;-2.286;2023-04-24T03:06:50;4.85;;;1.65;;
23732;SDS011;12047;53.450;-2.286;2023-04-24T03:11:52;4.82;;;1.38;;
23732;SDS011;12047;53.450;-2.286;2023-04-24T03:16:53;8.43;;;1.90;;
23732;SDS011;12047;53.450;-2.286;2023-04-24T03:21:53;7.07;;;1.80;;
23732;SDS011;12047;53.450;-2.286;2023-04-24T03:26:54;4.75;;;1.55;;
23732;SDS011;12047;53.450;-2.286;2023-04-24T03:31:56;5.70;;;1.85;;
23732;SDS011;12047;53.450;-2.286;2023-04-24T03:36:57;5.55;;;1.70;;
23732;SDS011;12047;53.450;-2.286;2023-04-24T03:41:57;5.68;;;1.98;;
23732;SDS011;12047;53.450;-2.286;2023-04-24T03:46:58;5.60;;;1.77;;
23732;SDS011;12047;53.450;-2.286;2023-04-24T03:51:58;5.55;;;1.50;;
23732;SDS011;12047;53.450;-2.286;2023-04-24T03:56:59;5.15;;;1.70;;
23732;SDS011;12047;53.450;-2.286;2023-04-24T04:01:59;6.07;;;1.95;;
23732;SDS011;12047;53.450;-2.286;2023-04-24T04:07:00;5.97;;;1.67;;
23732;SDS011;12047;53.450;-2.286;2023-04-24T04:12:04;5.07;;;1.60;;
23732;SDS011;12047;53.450;-2.286;2023-04-24T04:17:04;6.35;;;1.67;;
23732;SDS011;12047;53.450;-2.286;2023-04-24T04:22:05;5.68;;;1.55;;
23732;SDS011;12047;53.450;-2.286;2023-04-24T04:27:05;5.53;;;1.80;;
23732;SDS011;12047;53.450;-2.286;2023-04-24T04:32:06;5.60;;;1.60;;
23732;SDS011;12047;53.450;-2.286;2023-04-24T04:37:07;3.90;;;1.25;;
23732;SDS011;12047;53.450;-2.286;2023-04-24T04:42:08;7.22;;;1.90;;
23732;SDS011;12047;53.450;-2.286;2023-04-24T04:47:08;5.13;;;1.65;;
23732;SDS011;12047;53.450;-2.286;2023-04-24T04:52:09;5.80;;;2.10;;
23732;SDS011;12047;53.450;-2.286;2023-04-24T04:57:10;4.75;;;1.70;;
23732;SDS011;12047;53.450;-2.286;2023-04-24T05:02:10;4.40;;;1.70;;
23732;SDS011;12047;53.450;-2.286;2023-04-24T05:07:11;5.35;;;1.90;;
23732;SDS011;12047;53.450;-2.286;2023-04-24T05:12:11;8.75;;;1.90;;
23732;SDS011;12047;53.450;-2.286;2023-04-24T05:17:12;4.55;;;1.60;;
23732;SDS011;12047;53.450;-2.286;2023-04-24T05:22:12;8.07;;;1.88;;
23732;SDS011;12047;53.450;-2.286;2023-04-24T05:27:13;6.22;;;1.85;;
23732;SDS011;12047;53.450;-2.286;2023-04-24T05:32:13;6.43;;;1.77;;
23732;SDS011;12047;53.450;-2.286;2023-04-24T05:37:14;5.90;;;1.50;;
23732;SDS011;12047;53.450;-2.286;2023-04-24T05:42:15;5.18;;;1.52;;
23732;SDS011;12047;53.450;-2.286;2023-04-24T05:47:15;7.65;;;1.80;;
23732;SDS011;12047;53.450;-2.286;2023-04-24T05:52:16;5.72;;;1.75;;
23732;SDS011;12047;53.450;-2.286;2023-04-24T05:57:16;6.15;;;1.73;;
23732;SDS011;12047;53.450;-2.286;2023-04-24T06:02:16;5.72;;;1.83;;
23732;SDS011;12047;53.450;-2.286;2023-04-24T06:07:17;4.93;;;1.58;;
23732;SDS011;12047;53.450;-2.286;2023-04-24T06:12:18;5.80;;;1.83;;
23732;SDS011;12047;53.450;-2.286;2023-04-24T06:17:18;9.07;;;1.88;;
23732;SDS011;12047;53.450;-2.286;2023-04-24T06:22:19;8.75;;;2.15;;
23732;SDS011;12047;53.450;-2.286;2023-04-24T06:27:19;9.05;;;2.05;;
23732;SDS011;12047;53.450;-2.286;2023-04-24T06:32:21;9.13;;;2.72;;
23732;SDS011;12047;53.450;-2.286;2023-04-24T06:37:22;6.28;;;1.90;;
23732;SDS011;12047;53.450;-2.286;2023-04-24T06:42:23;7.95;;;2.35;;
23732;SDS011;12047;53.450;-2.286;2023-04-24T06:47:24;7.13;;;1.80;;
23732;SDS011;12047;53.450;-2.286;2023-04-24T06:52:25;6.95;;;2.03;;
23732;SDS011;12047;53.450;-2.286;2023-04-24T06:57:26;9.65;;;2.22;;
23732;SDS011;12047;53.450;-2.286;2023-04-24T07:02:26;6.93;;;2.15;;
23732;SDS011;12047;53.450;-2.286;2023-04-24T07:07:27;6.70;;;2.25;;
23732;SDS011;12047;53.450;-2.286;2023-04-24T07:12:28;9.15;;;2.33;;
23732;SDS011;12047;53.450;-2.286;2023-04-24T07:17:28;12.60;;;2.10;;
23732;SDS011;12047;53.450;-2.286;2023-04-24T07:22:28;10.20;;;2.30;;
23732;SDS011;12047;53.450;-2.286;2023-04-24T07:27:29;8.30;;;2.30;;
23732;SDS011;12047;53.450;-2.286;2023-04-24T07:32:29;10.70;;;2.63;;
23732;SDS011;12047;53.450;-2.286;2023-04-24T07:37:30;9.27;;;2.60;;
23732;SDS011;12047;53.450;-2.286;2023-04-24T07:42:31;11.15;;;2.58;;
23732;SDS011;12047;53.450;-2.286;2023-04-24T07:47:31;12.48;;;2.35;;
23732;SDS011;12047;53.450;-2.286;2023-04-24T07:52:33;11.43;;;2.78;;
23732;SDS011;12047;53.450;-2.286;2023-04-24T07:57:33;8.05;;;2.17;;
23732;SDS011;12047;53.450;-2.286;2023-04-24T08:02:34;10.88;;;2.40;;
23732;SDS011;12047;53.450;-2.286;2023-04-24T08:07:34;11.85;;;2.63;;
23732;SDS011;12047;53.450;-2.286;2023-04-24T08:12:35;11.55;;;3.05;;
23732;SDS011;12047;53.450;-2.286;2023-04-24T08:17:36;10.55;;;2.63;;
23732;SDS011;12047;53.450;-2.286;2023-04-24T08:22:37;13.15;;;2.42;;
23732;SDS011;12047;53.450;-2.286;2023-04-24T08:27:37;7.95;;;2.80;;
23732;SDS011;12047;53.450;-2.286;2023-04-24T08:32:38;11.80;;;2.80;;
23732;SDS011;12047;53.450;-2.286;2023-04-24T08:37:39;17.10;;;3.10;;
23732;SDS011;12047;53.450;-2.286;2023-04-24T08:42:43;8.55;;;2.10;;
23732;SDS011;12047;53.450;-2.286;2023-04-24T08:47:44;9.73;;;2.92;;
23732;SDS011;12047;53.450;-2.286;2023-04-24T08:52:45;14.13;;;3.08;;
23732;SDS011;12047;53.450;-2.286;2023-04-24T08:57:50;10.93;;;3.28;;
23732;SDS011;12047;53.450;-2.286;2023-04-24T09:07:56;12.73;;;2.80;;
23732;SDS011;12047;53.450;-2.286;2023-04-24T09:12:57;13.40;;;3.13;;
23732;SDS011;12047;53.450;-2.286;2023-04-24T09:18:02;13.98;;;2.67;;
23732;SDS011;12047;53.450;-2.286;2023-04-24T09:23:02;10.88;;;3.08;;
23732;SDS011;12047;53.450;-2.286;2023-04-24T09:28:03;11.50;;;2.88;;
23732;SDS011;12047;53.450;-2.286;2023-04-24T09:33:09;13.23;;;2.50;;
23732;SDS011;12047;53.450;-2.286;2023-04-24T09:38:14;13.02;;;2.80;;
23732;SDS011;12047;53.450;-2.286;2023-04-24T09:43:14;13.65;;;2.67;;
23732;SDS011;12047;53.450;-2.286;2023-04-24T09:48:15;9.65;;;2.50;;
23732;SDS011;12047;53.450;-2.286;2023-04-24T09:53:15;11.93;;;2.97;;
23732;SDS011;12047;53.450;-2.286;2023-04-24T09:58:16;14.80;;;3.58;;
23732;SDS011;12047;53.450;-2.286;2023-04-24T10:03:17;9.93;;;2.58;;
23732;SDS011;12047;53.450;-2.286;2023-04-24T10:08:18;6.63;;;2.08;;
23732;SDS011;12047;53.450;-2.286;2023-04-24T10:13:19;8.13;;;2.60;;
23732;SDS011;12047;53.450;-2.286;2023-04-24T10:18:20;7.88;;;2.17;;
23732;SDS011;12047;53.450;-2.286;2023-04-24T10:23:21;6.63;;;2.10;;
23732;SDS011;12047;53.450;-2.286;2023-04-24T10:28:23;13.82;;;2.67;;
23732;SDS011;12047;53.450;-2.286;2023-04-24T10:33:24;7.80;;;2.20;;
23732;SDS011;12047;53.450;-2.286;2023-04-24T10:38:26;7.18;;;2.25;;
23732;SDS011;12047;53.450;-2.286;2023-04-24T10:43:29;6.75;;;2.28;;
23732;SDS011;12047;53.450;-2.286;2023-04-24T10:59:35;6.60;;;2.20;;
23732;SDS011;12047;53.450;-2.286;2023-04-24T11:04:37;7.25;;;1.70;;
23732;SDS011;12047;53.450;-2.286;2023-04-24T11:09:38;6.75;;;1.98;;
23732;SDS011;12047;53.450;-2.286;2023-04-24T11:20:03;9.48;;;2.42;;
23732;SDS011;12047;53.450;-2.286;2023-04-24T11:25:05;5.63;;;1.95;;
23732;SDS011;12047;53.450;-2.286;2023-04-24T11:30:07;5.47;;;1.80;;
23732;SDS011;12047;53.450;-2.286;2023-04-24T11:40:24;7.32;;;2.10;;
23732;SDS011;12047;53.450;-2.286;2023-04-24T11:45:28;8.30;;;1.92;;
23732;SDS011;12047;53.450;-2.286;2023-04-24T11:50:30;11.73;;;2.47;;
23732;SDS011;12047;53.450;-2.286;2023-04-24T11:55:30;6.65;;;2.00;;
23732;SDS011;12047;53.450;-2.286;2023-04-24T12:00:31;5.75;;;2.05;;
23732;SDS011;12047;53.450;-2.286;2023-04-24T12:05:35;8.48;;;2.00;;
23732;SDS011;12047;53.450;-2.286;2023-04-24T12:10:36;5.43;;;2.00;;
23732;SDS011;12047;53.450;-2.286;2023-04-24T12:15:39;5.32;;;1.65;;
23732;SDS011;12047;53.450;-2.286;2023-04-24T12:20:40;4.97;;;1.63;;
23732;SDS011;12047;53.450;-2.286;2023-04-24T12:25:40;7.50;;;2.33;;
23732;SDS011;12047;53.450;-2.286;2023-04-24T12:30:42;10.07;;;2.78;;
23732;SDS011;12047;53.450;-2.286;2023-04-24T12:35:44;5.68;;;1.90;;
23732;SDS011;12047;53.450;-2.286;2023-04-24T12:40:45;9.80;;;2.20;;
23732;SDS011;12047;53.450;-2.286;2023-04-24T12:45:47;9.20;;;2.10;;
23732;SDS011;12047;53.450;-2.286;2023-04-24T12:50:49;8.05;;;2.03;;
23732;SDS011;12047;53.450;-2.286;2023-04-24T12:55:49;11.60;;;2.20;;
23732;SDS011;12047;53.450;-2.286;2023-04-24T13:00:52;6.38;;;2.30;;
23732;SDS011;12047;53.450;-2.286;2023-04-24T13:05:53;6.18;;;2.00;;
23732;SDS011;12047;53.450;-2.286;2023-04-24T13:10:53;5.07;;;1.85;;
23732;SDS011;12047;53.450;-2.286;2023-04-24T13:15:54;5.43;;;1.92;;
23732;SDS011;12047;53.450;-2.286;2023-04-24T13:20:55;8.27;;;2.13;;
23732;SDS011;12047;53.450;-2.286;2023-04-24T13:25:55;11.05;;;2.28;;
23732;SDS011;12047;53.450;-2.286;2023-04-24T13:30:58;6.28;;;1.95;;
23732;SDS011;12047;53.450;-2.286;2023-04-24T13:35:58;9.27;;;1.90;;
23732;SDS011;12047;53.450;-2.286;2023-04-24T13:41:00;8.75;;;2.13;;
23732;SDS011;12047;53.450;-2.286;2023-04-24T13:46:00;6.93;;;2.08;;
23732;SDS011;12047;53.450;-2.286;2023-04-24T13:51:02;6.18;;;1.95;;
23732;SDS011;12047;53.450;-2.286;2023-04-24T13:56:03;4.53;;;1.40;;
23732;SDS011;12047;53.450;-2.286;2023-04-24T14:01:05;8.57;;;2.05;;
23732;SDS011;12047;53.450;-2.286;2023-04-24T14:06:06;4.88;;;1.60;;
23732;SDS011;12047;53.450;-2.286;2023-04-24T14:11:06;5.93;;;1.58;;
23732;SDS011;12047;53.450;-2.286;2023-04-24T14:16:07;7.65;;;2.33;;
23732;SDS011;12047;53.450;-2.286;2023-04-24T14:21:07;11.45;;;2.20;;
23732;SDS011;12047;53.450;-2.286;2023-04-24T14:26:08;9.18;;;2.00;;
23732;SDS011;12047;53.450;-2.286;2023-04-24T14:31:08;5.50;;;1.90;;
23732;SDS011;12047;53.450;-2.286;2023-04-24T14:36:09;7.63;;;1.90;;
23732;SDS011;12047;53.450;-2.286;2023-04-24T14:41:10;11.85;;;2.20;;
23732;SDS011;12047;53.450;-2.286;2023-04-24T14:46:11;7.68;;;2.55;;
23732;SDS011;12047;53.450;-2.286;2023-04-24T14:51:12;8.20;;;2.00;;
23732;SDS011;12047;53.450;-2.286;2023-04-24T14:56:13;7.05;;;2.08;;
23732;SDS011;12047;53.450;-2.286;2023-04-24T15:01:14;7.90;;;1.90;;
23732;SDS011;12047;53.450;-2.286;2023-04-24T15:06:14;6.72;;;1.88;;
23732;SDS011;12047;53.450;-2.286;2023-04-24T15:11:15;8.07;;;2.03;;
23732;SDS011;12047;53.450;-2.286;2023-04-24T15:16:15;4.78;;;1.77;;
23732;SDS011;12047;53.450;-2.286;2023-04-24T15:21:16;9.10;;;2.13;;
23732;SDS011;12047;53.450;-2.286;2023-04-24T15:26:17;9.55;;;2.15;;
23732;SDS011;12047;53.450;-2.286;2023-04-24T15:31:18;14.68;;;2.60;;
23732;SDS011;12047;53.450;-2.286;2023-04-24T15:36:19;7.55;;;2.28;;
23732;SDS011;12047;53.450;-2.286;2023-04-24T15:41:21;8.80;;;2.05;;
23732;SDS011;12047;53.450;-2.286;2023-04-24T15:46:21;9.95;;;1.90;;
23732;SDS011;12047;53.450;-2.286;2023-04-24T15:51:22;11.82;;;2.13;;
23732;SDS011;12047;53.450;-2.286;2023-04-24T15:56:24;6.63;;;2.30;;
23732;SDS011;12047;53.450;-2.286;2023-04-24T16:01:24;8.60;;;2.30;;
23732;SDS011;12047;53.450;-2.286;2023-04-24T16:06:25;9.43;;;2.92;;
23732;SDS011;12047;53.450;-2.286;2023-04-24T16:11:26;11.20;;;2.70;;
23732;SDS011;12047;53.450;-2.286;2023-04-24T16:16:27;9.27;;;2.83;;
23732;SDS011;12047;53.450;-2.286;2023-04-24T16:21:27;12.95;;;2.67;;
23732;SDS011;12047;53.450;-2.286;2023-04-24T16:26:28;8.15;;;2.50;;
23732;SDS011;12047;53.450;-2.286;2023-04-24T16:31:28;13.15;;;2.53;;
23732;SDS011;12047;53.450;-2.286;2023-04-24T16:36:29;11.32;;;2.70;;
23732;SDS011;12047;53.450;-2.286;2023-04-24T16:41:30;12.05;;;2.70;;
23732;SDS011;12047;53.450;-2.286;2023-04-24T16:46:31;9.65;;;2.60;;
23732;SDS011;12047;53.450;-2.286;2023-04-24T16:51:31;14.43;;;2.53;;
23732;SDS011;12047;53.450;-2.286;2023-04-24T16:56:32;10.65;;;2.33;;
23732;SDS011;12047;53.450;-2.286;2023-04-24T17:01:33;10.40;;;2.53;;
23732;SDS011;12047;53.450;-2.286;2023-04-24T17:06:34;12.20;;;3.28;;
23732;SDS011;12047;53.450;-2.286;2023-04-24T17:11:34;13.07;;;2.70;;
23732;SDS011;12047;53.450;-2.286;2023-04-24T17:16:35;11.93;;;2.35;;
23732;SDS011;12047;53.450;-2.286;2023-04-24T17:21:36;12.13;;;3.17;;
23732;SDS011;12047;53.450;-2.286;2023-04-24T17:26:39;10.70;;;2.60;;
23732;SDS011;12047;53.450;-2.286;2023-04-24T17:31:39;14.32;;;2.70;;
23732;SDS011;12047;53.450;-2.286;2023-04-24T17:36:40;11.07;;;2.85;;
23732;SDS011;12047;53.450;-2.286;2023-04-24T17:46:51;18.13;;;3.85;;
23732;SDS011;12047;53.450;-2.286;2023-04-24T17:51:52;15.43;;;2.95;;
23732;SDS011;12047;53.450;-2.286;2023-04-24T17:56:52;9.30;;;2.45;;
23732;SDS011;12047;53.450;-2.286;2023-04-24T18:01:53;14.77;;;3.17;;
23732;SDS011;12047;53.450;-2.286;2023-04-24T18:06:54;14.25;;;2.80;;
23732;SDS011;12047;53.450;-2.286;2023-04-24T18:11:54;15.55;;;2.70;;
23732;SDS011;12047;53.450;-2.286;2023-04-24T18:16:56;14.25;;;2.70;;
23732;SDS011;12047;53.450;-2.286;2023-04-24T18:21:57;16.55;;;2.90;;
23732;SDS011;12047;53.450;-2.286;2023-04-24T18:26:58;11.55;;;2.38;;
23732;SDS011;12047;53.450;-2.286;2023-04-24T18:31:59;11.68;;;2.38;;
23732;SDS011;12047;53.450;-2.286;2023-04-24T18:36:59;5.80;;;2.30;;
23732;SDS011;12047;53.450;-2.286;2023-04-24T18:42:00;11.90;;;2.25;;
23732;SDS011;12047;53.450;-2.286;2023-04-24T18:47:00;15.73;;;2.97;;
23732;SDS011;12047;53.450;-2.286;2023-04-24T18:52:01;12.98;;;2.38;;
23732;SDS011;12047;53.450;-2.286;2023-04-24T18:57:01;10.23;;;2.63;;
23732;SDS011;12047;53.450;-2.286;2023-04-24T19:02:02;9.65;;;2.60;;
23732;SDS011;12047;53.450;-2.286;2023-04-24T19:07:03;11.45;;;2.80;;
23732;SDS011;12047;53.450;-2.286;2023-04-24T19:12:03;6.75;;;2.33;;
23732;SDS011;12047;53.450;-2.286;2023-04-24T19:17:05;12.40;;;2.85;;
23732;SDS011;12047;53.450;-2.286;2023-04-24T19:22:08;8.23;;;2.30;;
23732;SDS011;12047;53.450;-2.286;2023-04-24T19:27:08;13.57;;;3.03;;
23732;SDS011;12047;53.450;-2.286;2023-04-24T19:32:09;11.63;;;2.45;;
23732;SDS011;12047;53.450;-2.286;2023-04-24T19:37:09;11.95;;;2.58;;
23732;SDS011;12047;53.450;-2.286;2023-04-24T19:42:10;13.02;;;2.88;;
23732;SDS011;12047;53.450;-2.286;2023-04-24T19:47:10;10.20;;;2.20;;
23732;SDS011;12047;53.450;-2.286;2023-04-24T19:52:12;12.35;;;2.55;;
23732;SDS011;12047;53.450;-2.286;2023-04-24T19:57:14;16.08;;;2.60;;
23732;SDS011;12047;53.450;-2.286;2023-04-24T20:02:14;16.17;;;3.40;;
23732;SDS011;12047;53.450;-2.286;2023-04-24T20:07:15;11.43;;;2.72;;
23732;SDS011;12047;53.450;-2.286;2023-04-24T20:12:15;13.57;;;2.90;;
23732;SDS011;12047;53.450;-2.286;2023-04-24T20:17:16;15.52;;;3.55;;
23732;SDS011;12047;53.450;-2.286;2023-04-24T20:22:17;11.75;;;3.10;;
23732;SDS011;12047;53.450;-2.286;2023-04-24T20:27:17;14.52;;;3.15;;
23732;SDS011;12047;53.450;-2.286;2023-04-24T20:32:19;16.33;;;2.97;;
23732;SDS011;12047;53.450;-2.286;2023-04-24T20:37:19;13.43;;;3.13;;
23732;SDS011;12047;53.450;-2.286;2023-04-24T20:42:20;15.60;;;3.35;;
23732;SDS011;12047;53.450;-2.286;2023-04-24T20:47:21;12.82;;;3.60;;
23732;SDS011;12047;53.450;-2.286;2023-04-24T20:52:21;13.48;;;3.83;;
23732;SDS011;12047;53.450;-2.286;2023-04-24T20:57:22;12.73;;;3.38;;
23732;SDS011;12047;53.450;-2.286;2023-04-24T21:02:22;13.65;;;3.58;;
23732;SDS011;12047;53.450;-2.286;2023-04-24T21:07:23;16.15;;;3.20;;
23732;SDS011;12047;53.450;-2.286;2023-04-24T21:12:23;11.73;;;2.97;;
23732;SDS011;12047;53.450;-2.286;2023-04-24T21:17:24;11.68;;;3.28;;
23732;SDS011;12047;53.450;-2.286;2023-04-24T21:22:24;12.27;;;3.00;;
23732;SDS011;12047;53.450;-2.286;2023-04-24T21:27:25;8.35;;;2.95;;
23732;SDS011;12047;53.450;-2.286;2023-04-24T21:32:25;11.70;;;2.75;;
23732;SDS011;12047;53.450;-2.286;2023-04-24T21:37:26;10.60;;;3.25;;
23732;SDS011;12047;53.450;-2.286;2023-04-24T21:42:26;11.48;;;3.33;;
23732;SDS011;12047;53.450;-2.286;2023-04-24T21:47:27;17.25;;;3.20;;
23732;SDS011;12047;53.450;-2.286;2023-04-24T21:52:27;10.98;;;3.25;;
23732;SDS011;12047;53.450;-2.286;2023-04-24T21:57:28;17.60;;;2.85;;
23732;SDS011;12047;53.450;-2.286;2023-04-24T22:02:29;12.07;;;3.25;;
23732;SDS011;12047;53.450;-2.286;2023-04-24T22:07:31;10.80;;;3.38;;
23732;SDS011;12047;53.450;-2.286;2023-04-24T22:12:35;13.52;;;3.10;;
23732;SDS011;12047;53.450;-2.286;2023-04-24T22:17:35;11.55;;;2.92;;
23732;SDS011;12047;53.450;-2.286;2023-04-24T22:22:36;10.95;;;3.00;;
23732;SDS011;12047;53.450;-2.286;2023-04-24T22:27:36;11.52;;;2.30;;
23732;SDS011;12047;53.450;-2.286;2023-04-24T22:32:37;8.85;;;2.65;;
23732;SDS011;12047;53.450;-2.286;2023-04-24T22:37:38;10.93;;;2.90;;
23732;SDS011;12047;53.450;-2.286;2023-04-24T22:42:38;11.30;;;3.13;;
23732;SDS011;12047;53.450;-2.286;2023-04-24T22:47:39;13.23;;;3.25;;
23732;SDS011;12047;53.450;-2.286;2023-04-24T22:52:40;10.32;;;3.92;;
23732;SDS011;12047;53.450;-2.286;2023-04-24T22:57:40;6.70;;;3.03;;
23732;SDS011;12047;53.450;-2.286;2023-04-24T23:02:41;14.80;;;3.17;;
23732;SDS011;12047;53.450;-2.286;2023-04-24T23:07:41;10.40;;;3.20;;
23732;SDS011;12047;53.450;-2.286;2023-04-24T23:12:42;11.25;;;2.83;;
23732;SDS011;12047;53.450;-2.286;2023-04-24T23:17:43;15.70;;;3.33;;
23732;SDS011;12047;53.450;-2.286;2023-04-24T23:22:43;13.55;;;3.15;;
23732;SDS011;12047;53.450;-2.286;2023-04-24T23:27:43;12.30;;;3.00;;
23732;SDS011;12047;53.450;-2.286;2023-04-24T23:32:44;13.27;;;3.50;;
23732;SDS011;12047;53.450;-2.286;2023-04-24T23:37:44;10.82;;;3.13;;
23732;SDS011;12047;53.450;-2.286;2023-04-24T23:42:45;12.85;;;3.40;;
23732;SDS011;12047;53.450;-2.286;2023-04-24T23:47:45;12.27;;;3.22;;
23732;SDS011;12047;53.450;-2.286;2023-04-24T23:52:46;11.52;;;3.10;;
23732;SDS011;12047;53.450;-2.286;2023-04-24T23:57:46;9.63;;;2.60;;
